Time;durP1;ratioP1;P1;durP2;ratioP2;P2;SDS_P1;SDS_P2;PMS_P1;PMS_P2;Temp;Humidity;BMP_temperature;BMP_pressure;BME280_temperature;BME280_humidity;BME280_pressure;Samples;Min_cycle;Max_cycle;Signal;HPM_P1;HPM_P2
2023/05/24 00:01:06;;;;;;;30.80;6.30;;;19.30;54.40;;;;;;5078191;28;20214;-93
2023/05/24 00:03:33;;;;;;;27.13;5.50;;;19.30;54.40;;;;;;5068058;28;20219;-90
2023/05/24 00:06:00;;;;;;;42.50;7.33;;;19.20;54.30;;;;;;5071553;28;20207;-92
2023/05/24 00:08:27;;;;;;;53.20;8.33;;;19.20;54.30;;;;;;5077343;28;20198;-91
2023/05/24 00:10:54;;;;;;;58.57;8.37;;;19.20;54.30;;;;;;5083113;28;20226;-92
2023/05/24 00:16:20;;;;;;;30.93;5.83;;;19.10;54.10;;;;;;5060431;28;20215;-91
2023/05/24 00:18:47;;;;;;;40.60;6.70;;;19.00;54.10;;;;;;5075787;28;20338;-91
2023/05/24 00:21:14;;;;;;;38.97;6.43;;;19.10;54.20;;;;;;5087387;28;20199;-91
2023/05/24 00:23:42;;;;;;;49.27;7.17;;;19.10;54.20;;;;;;5085748;28;20218;-90
2023/05/24 00:26:10;;;;;;;36.80;6.60;;;19.10;54.20;;;;;;5085082;28;20722;-90
2023/05/24 00:28:38;;;;;;;45.00;7.27;;;19.00;54.10;;;;;;5078180;28;20267;-91
2023/05/24 00:31:07;;;;;;;44.43;7.00;;;19.00;54.10;;;;;;5072060;28;20208;-91
2023/05/24 00:33:34;;;;;;;44.67;6.97;;;19.00;54.20;;;;;;5084785;28;20205;-91
2023/05/24 00:36:01;;;;;;;28.13;6.23;;;19.00;54.20;;;;;;5085379;28;20206;-89
2023/05/24 00:38:28;;;;;;;43.40;7.00;;;19.00;54.20;;;;;;5071157;28;20272;-90
2023/05/24 00:40:56;;;;;;;32.77;6.40;;;19.00;54.20;;;;;;5079499;28;20223;-89
2023/05/24 00:43:23;;;;;;;50.40;7.53;;;19.00;54.20;;;;;;5089409;28;20319;-90
2023/05/24 00:46:14;;;;;;;31.93;6.07;;;18.90;54.10;;;;;;5086840;28;20321;-90
2023/05/24 00:48:41;;;;;;;41.87;7.33;;;18.90;54.00;;;;;;5083259;28;20246;-91
2023/05/24 00:51:16;;;;;;;48.60;7.17;;;18.90;54.10;;;;;;5075142;28;20679;-91
2023/05/24 00:53:46;;;;;;;37.43;6.23;;;19.00;54.20;;;;;;5074915;28;20728;-90
2023/05/24 00:56:15;;;;;;;35.13;6.27;;;18.80;54.00;;;;;;5080219;28;20223;-90
2023/05/24 00:58:43;;;;;;;41.77;6.63;;;18.80;54.00;;;;;;5084764;28;20340;-91
2023/05/24 01:01:12;;;;;;;37.53;6.50;;;18.80;54.10;;;;;;5090015;28;20219;-93
2023/05/24 01:03:40;;;;;;;39.27;7.00;;;18.80;54.00;;;;;;5078949;28;20701;-93
2023/05/24 01:06:08;;;;;;;43.43;6.87;;;18.70;54.00;;;;;;5087695;28;20233;-91
2023/05/24 01:08:45;;;;;;;47.50;7.60;;;18.80;54.10;;;;;;5075226;28;20286;-93
2023/05/24 01:11:20;;;;;;;57.43;8.10;;;18.70;53.90;;;;;;5079112;28;20227;-91
2023/05/24 01:13:57;;;;;;;33.47;5.97;;;18.70;54.00;;;;;;5076439;28;20709;-90
2023/05/24 01:16:32;;;;;;;41.37;6.87;;;18.70;54.00;;;;;;5083883;28;20227;-92
2023/05/24 01:19:05;;;;;;;34.07;6.20;;;18.70;54.00;;;;;;5083541;28;20230;-91
2023/05/24 01:21:47;;;;;;;39.47;6.60;;;18.70;54.00;;;;;;5088635;28;20267;-91
2023/05/24 01:24:23;;;;;;;29.73;5.87;;;18.70;54.00;;;;;;5083425;28;20640;-92
2023/05/24 01:27:14;;;;;;;32.93;6.10;;;18.60;53.90;;;;;;5076937;28;20286;-90
2023/05/24 01:29:42;;;;;;;33.80;6.67;;;18.60;53.90;;;;;;5086899;28;20233;-90
2023/05/24 01:32:10;;;;;;;37.33;6.60;;;18.60;54.00;;;;;;5086832;28;20322;-90
2023/05/24 01:34:37;;;;;;;31.90;6.07;;;18.60;54.00;;;;;;5085073;28;20698;-90
2023/05/24 01:37:05;;;;;;;36.03;6.50;;;18.60;54.00;;;;;;5095562;28;20230;-90
2023/05/24 01:39:32;;;;;;;35.43;6.43;;;18.50;53.90;;;;;;5092252;28;20203;-91
2023/05/24 01:42:09;;;;;;;40.50;6.67;;;18.50;53.90;;;;;;5075730;28;20236;-91
2023/05/24 01:44:40;;;;;;;30.00;6.13;;;18.50;53.90;;;;;;5082564;28;20225;-90
2023/05/24 01:47:19;;;;;;;42.83;7.07;;;18.50;53.90;;;;;;5076200;28;20199;-91
2023/05/24 01:49:50;;;;;;;32.60;6.20;;;18.50;53.80;;;;;;5076146;28;20213;-91
2023/05/24 01:52:22;;;;;;;43.13;7.27;;;18.40;53.80;;;;;;5075030;28;20290;-91
2023/05/24 01:54:53;;;;;;;30.37;6.03;;;18.40;53.80;;;;;;5076026;28;20745;-91
2023/05/24 01:57:23;;;;;;;23.63;5.47;;;18.40;53.90;;;;;;5074822;28;20658;-91
2023/05/24 01:59:51;;;;;;;27.30;5.83;;;18.40;53.80;;;;;;5071181;28;20226;-90
2023/05/24 02:02:19;;;;;;;35.00;6.50;;;18.40;53.90;;;;;;5076090;28;20260;-91
2023/05/24 02:04:46;;;;;;;19.67;5.10;;;18.40;54.50;;;;;;5070145;28;20242;-93
2023/05/24 02:07:20;;;;;;;38.37;6.97;;;18.30;53.80;;;;;;5070368;28;20246;-91
2023/05/24 02:09:47;;;;;;;36.40;6.10;;;18.30;53.80;;;;;;5069932;28;20206;-91
2023/05/24 02:12:14;;;;;;;26.73;6.03;;;18.30;53.80;;;;;;5069667;28;20345;-90
2023/05/24 02:14:43;;;;;;;29.77;6.53;;;18.30;53.80;;;;;;5070532;28;20731;-90
2023/05/24 02:17:10;;;;;;;29.30;5.90;;;18.30;53.80;;;;;;5070096;28;20238;-90
2023/05/24 02:19:37;;;;;;;29.70;6.33;;;18.20;53.80;;;;;;5070280;28;20213;-90
2023/05/24 02:22:05;;;;;;;25.93;5.73;;;18.20;53.80;;;;;;5069840;28;20209;-90
2023/05/24 02:24:32;;;;;;;35.53;6.30;;;18.20;53.80;;;;;;5069639;28;20249;-90
2023/05/24 02:26:59;;;;;;;25.50;6.03;;;18.20;53.80;;;;;;5069188;28;20278;-92
2023/05/24 02:29:27;;;;;;;20.47;4.90;;;18.20;53.80;;;;;;5069842;28;20302;-90
2023/05/24 02:31:55;;;;;;;28.63;5.90;;;18.10;53.70;;;;;;5080694;28;20203;-90
2023/05/24 02:34:23;;;;;;;35.00;6.20;;;18.10;53.70;;;;;;5084008;28;20625;-90
2023/05/24 02:36:50;;;;;;;41.27;7.00;;;18.10;53.70;;;;;;5078238;28;20207;-90
2023/05/24 02:39:17;;;;;;;28.93;5.93;;;18.10;53.70;;;;;;5087082;28;20207;-90
2023/05/24 02:41:44;;;;;;;31.77;6.20;;;18.10;53.70;;;;;;5084811;28;20199;-90
2023/05/24 02:44:11;;;;;;;54.70;8.03;;;18.10;53.70;;;;;;5075562;28;20302;-90
2023/05/24 02:46:38;;;;;;;35.67;6.30;;;18.10;53.70;;;;;;5072640;28;20233;-90
2023/05/24 02:49:07;;;;;;;34.20;6.33;;;18.10;53.80;;;;;;5069613;28;20257;-91
2023/05/24 02:51:35;;;;;;;30.53;6.03;;;18.00;53.60;;;;;;5069767;28;20489;-90
2023/05/24 02:54:03;;;;;;;36.33;6.20;;;18.00;53.70;;;;;;5070487;28;20892;-92
2023/05/24 02:56:30;;;;;;;58.63;8.33;;;18.00;53.70;;;;;;5086726;28;20314;-91
2023/05/24 02:58:57;;;;;;;22.50;5.13;;;18.00;53.70;;;;;;5087344;28;20303;-90
2023/05/24 03:01:24;;;;;;;31.80;6.43;;;18.00;53.70;;;;;;5076076;28;20385;-91
2023/05/24 03:03:51;;;;;;;35.57;6.03;;;18.00;53.70;;;;;;5080158;28;20647;-91
2023/05/24 03:06:19;;;;;;;34.17;6.70;;;17.90;53.60;;;;;;5083388;28;20689;-90
2023/05/24 03:08:48;;;;;;;30.70;6.33;;;17.90;53.60;;;;;;5083025;28;20209;-90
2023/05/24 03:11:15;;;;;;;42.83;7.17;;;17.90;53.60;;;;;;5087492;28;20293;-90
2023/05/24 03:13:43;;;;;;;40.27;6.97;;;17.80;53.50;;;;;;5075493;28;20214;-93
2023/05/24 03:16:10;;;;;;;42.30;7.23;;;17.80;53.50;;;;;;5072850;28;20268;-92
2023/05/24 03:18:37;;;;;;;24.53;5.67;;;17.80;53.50;;;;;;5082704;28;20205;-91
2023/05/24 03:21:04;;;;;;;42.33;7.17;;;17.80;53.50;;;;;;5074312;28;20210;-93
2023/05/24 03:23:33;;;;;;;29.37;6.33;;;17.80;53.60;;;;;;5073208;28;20234;-92
2023/05/24 03:26:00;;;;;;;38.37;6.70;;;17.80;53.50;;;;;;5078593;28;20342;-93
2023/05/24 03:28:28;;;;;;;31.53;6.47;;;17.80;53.60;;;;;;5069247;28;20719;-96
2023/05/24 03:30:55;;;;;;;20.47;5.20;;;17.80;53.60;;;;;;5073466;28;20210;-89
2023/05/24 03:33:22;;;;;;;28.40;5.93;;;17.80;53.60;;;;;;5089647;28;20305;-90
2023/05/24 03:35:49;;;;;;;30.13;5.70;;;17.70;53.50;;;;;;5072180;28;20756;-92
2023/05/24 03:38:16;;;;;;;28.07;5.87;;;17.70;53.50;;;;;;5088093;28;20693;-95
2023/05/24 03:40:45;;;;;;;25.73;5.73;;;17.70;53.50;;;;;;5088444;28;20618;-93
2023/05/24 03:43:12;;;;;;;24.53;5.63;;;17.70;53.50;;;;;;5084475;28;20633;-92
2023/05/24 03:45:39;;;;;;;22.63;5.63;;;17.70;53.50;;;;;;5068961;28;20234;-93
2023/05/24 03:48:06;;;;;;;45.17;7.40;;;17.60;53.50;;;;;;5073126;28;20285;-93
2023/05/24 03:50:33;;;;;;;27.37;6.17;;;17.60;53.50;;;;;;5076691;28;20293;-89
2023/05/24 03:53:00;;;;;;;21.33;5.80;;;17.60;53.50;;;;;;5086020;28;20205;-89
2023/05/24 03:55:27;;;;;;;36.43;6.57;;;17.60;53.50;;;;;;5083050;28;20226;-90
2023/05/24 03:57:55;;;;;;;34.93;7.00;;;17.60;53.50;;;;;;5073361;28;20348;-93
2023/05/24 04:00:22;;;;;;;36.73;6.80;;;17.50;53.40;;;;;;5068266;28;20205;-93
2023/05/24 04:02:49;;;;;;;54.90;8.07;;;17.50;53.40;;;;;;5068311;28;20674;-89
2023/05/24 04:05:20;;;;;;;40.27;6.53;;;17.50;53.50;;;;;;5065768;28;20231;-93
2023/05/24 04:07:47;;;;;;;33.87;6.77;;;17.50;53.40;;;;;;5075002;28;20228;-92
2023/05/24 04:10:14;;;;;;;37.83;6.27;;;17.50;53.50;;;;;;5087744;28;20216;-92
2023/05/24 04:12:41;;;;;;;35.47;6.87;;;17.50;54.10;;;;;;5087981;28;20292;-91
2023/05/24 04:15:13;;;;;;;41.53;7.37;;;17.50;53.50;;;;;;5087849;28;20202;-92
2023/05/24 04:17:41;;;;;;;41.30;6.93;;;17.50;53.50;;;;;;5081205;28;20733;-89
2023/05/24 04:20:08;;;;;;;43.57;7.50;;;17.40;53.40;;;;;;5070653;28;20202;-92
2023/05/24 04:22:36;;;;;;;31.53;6.83;;;17.40;53.40;;;;;;5068464;28;20577;-91
2023/05/24 04:25:02;;;;;;;34.53;6.63;;;17.40;53.40;;;;;;5067754;28;20286;-89
2023/05/24 04:27:30;;;;;;;38.00;7.00;;;17.40;53.50;;;;;;5070446;28;20564;-89
2023/05/24 04:29:57;;;;;;;32.90;6.70;;;17.40;53.40;;;;;;5076038;28;20254;-88
2023/05/24 04:32:25;;;;;;;46.47;7.67;;;17.40;53.40;;;;;;5087723;28;20232;-89
2023/05/24 04:34:52;;;;;;;33.77;6.50;;;17.40;53.50;;;;;;5071825;28;20279;-90
2023/05/24 04:37:19;;;;;;;38.30;6.53;;;17.40;53.50;;;;;;5067319;28;20223;-90
2023/05/24 04:39:46;;;;;;;31.67;6.17;;;17.30;53.40;;;;;;5067649;28;20214;-90
2023/05/24 04:42:13;;;;;;;32.90;6.37;;;17.30;53.40;;;;;;5067495;28;20628;-90
2023/05/24 04:44:41;;;;;;;33.23;6.47;;;17.30;53.40;;;;;;5067905;28;20305;-90
2023/05/24 04:47:13;;;;;;;34.60;6.67;;;17.30;53.40;;;;;;5081618;28;20224;-92
2023/05/24 04:49:41;;;;;;;34.23;6.33;;;17.30;53.40;;;;;;5087832;28;20210;-90
2023/05/24 04:52:08;;;;;;;38.57;7.00;;;17.30;53.40;;;;;;5085852;28;20193;-90
2023/05/24 04:54:38;;;;;;;56.70;8.20;;;17.30;53.40;;;;;;5084521;28;20229;-93
2023/05/24 04:57:06;;;;;;;36.30;6.63;;;17.20;53.40;;;;;;5076932;28;20689;-91
2023/05/24 04:59:33;;;;;;;41.00;6.97;;;17.20;53.30;;;;;;5080512;28;20788;-91
2023/05/24 05:02:00;;;;;;;41.37;7.10;;;17.20;53.40;;;;;;5079608;28;20233;-93
2023/05/24 05:04:27;;;;;;;45.47;7.53;;;17.20;53.40;;;;;;5084023;28;20288;-89
2023/05/24 05:06:55;;;;;;;37.43;6.80;;;17.20;53.40;;;;;;5092571;28;20250;-89
2023/05/24 05:09:23;;;;;;;45.23;7.33;;;17.20;53.40;;;;;;5096120;28;20234;-88
2023/05/24 05:11:53;;;;;;;33.73;6.43;;;17.20;53.40;;;;;;5095408;28;20202;-90
2023/05/24 05:14:20;;;;;;;33.30;6.80;;;17.20;53.40;;;;;;5077352;28;20202;-92
2023/05/24 05:16:47;;;;;;;37.87;6.87;;;17.20;53.40;;;;;;5078537;28;20306;-92
2023/05/24 05:19:20;;;;;;;19.07;5.40;;;17.20;53.40;;;;;;5072933;28;20247;-92
2023/05/24 05:21:50;;;;;;;23.33;5.80;;;17.20;53.40;;;;;;5073672;28;20256;-93
2023/05/24 05:24:20;;;;;;;24.73;5.47;;;17.10;53.30;;;;;;5087540;28;20661;-90
2023/05/24 05:26:47;;;;;;;24.07;5.60;;;17.20;53.40;;;;;;5092350;28;20232;-90
2023/05/24 05:29:14;;;;;;;23.30;5.43;;;17.10;53.30;;;;;;5090305;28;20208;-93
2023/05/24 05:31:42;;;;;;;52.13;7.83;;;17.10;53.30;;;;;;5091144;28;20536;-92
2023/05/24 05:34:09;;;;;;;38.27;6.90;;;17.10;53.30;;;;;;5085132;28;20233;-91
2023/05/24 05:36:39;;;;;;;39.93;7.20;;;17.10;53.40;;;;;;5071300;28;20229;-92
2023/05/24 05:39:08;;;;;;;45.37;7.27;;;17.10;53.30;;;;;;5081012;28;20228;-92
2023/05/24 05:41:41;;;;;;;40.33;7.40;;;17.10;53.40;;;;;;5091123;28;20212;-92
2023/05/24 05:44:17;;;;;;;39.57;6.93;;;17.10;53.40;;;;;;5083048;28;20214;-91
2023/05/24 05:46:45;;;;;;;40.77;7.47;;;17.10;53.40;;;;;;5070502;28;20753;-90
2023/05/24 05:49:12;;;;;;;39.57;6.80;;;17.10;53.40;;;;;;5090134;28;20220;-90
2023/05/24 05:51:39;;;;;;;41.80;7.07;;;17.10;53.40;;;;;;5084486;28;20292;-92
2023/05/24 05:54:07;;;;;;;40.30;7.70;;;17.10;53.40;;;;;;5087953;28;20209;-91
2023/05/24 05:56:39;;;;;;;52.00;8.57;;;17.10;53.50;;;;;;5081353;28;20200;-91
2023/05/24 05:59:08;;;;;;;29.43;6.70;;;17.10;53.50;;;;;;5080303;28;20202;-92
2023/05/24 06:01:35;;;;;;;29.33;6.23;;;17.10;53.50;;;;;;5089386;28;20312;-91
2023/05/24 06:04:02;;;;;;;44.57;7.30;;;17.10;53.60;;;;;;5070782;28;20203;-92
2023/05/24 06:06:29;;;;;;;35.87;7.23;;;17.10;53.60;;;;;;5090602;28;20293;-92
2023/05/24 06:08:56;;;;;;;32.67;6.53;;;17.10;53.60;;;;;;5084319;28;20659;-91
2023/05/24 06:11:23;;;;;;;27.63;6.20;;;17.20;53.70;;;;;;5088221;28;20296;-92
2023/05/24 06:13:50;;;;;;;47.73;7.73;;;17.10;53.60;;;;;;5088064;28;20664;-91
2023/05/24 06:16:19;;;;;;;32.17;6.53;;;17.20;53.80;;;;;;5075907;28;20305;-91
2023/05/24 06:18:47;;;;;;;28.40;6.33;;;17.20;53.80;;;;;;5078847;28;20202;-92
2023/05/24 06:21:14;;;;;;;28.80;6.43;;;17.20;53.80;;;;;;5079812;28;20221;-91
2023/05/24 06:23:43;;;;;;;32.83;6.70;;;17.20;53.80;;;;;;5088005;28;20261;-93
2023/05/24 06:26:10;;;;;;;30.47;6.10;;;17.20;53.80;;;;;;5090270;28;20217;-92
2023/05/24 06:28:37;;;;;;;34.97;6.53;;;17.10;53.70;;;;;;5089090;28;20209;-92
2023/05/24 06:31:04;;;;;;;28.90;6.20;;;17.20;53.80;;;;;;5085056;28;20649;-93
2023/05/24 06:33:43;;;;;;;31.73;6.23;;;17.20;53.80;;;;;;5070423;28;20395;-91
2023/05/24 06:36:10;;;;;;;51.40;7.73;;;17.10;53.80;;;;;;5078671;28;20210;-91
2023/05/24 06:38:39;;;;;;;39.33;7.33;;;17.20;53.80;;;;;;5076246;28;20208;-94
2023/05/24 06:41:07;;;;;;;73.47;10.07;;;17.20;53.90;;;;;;5084775;28;20201;-92
2023/05/24 06:43:36;;;;;;;76.10;10.83;;;17.20;54.00;;;;;;5077583;28;20303;-92
2023/05/24 06:46:03;;;;;;;59.47;9.67;;;17.20;54.60;;;;;;5073053;28;20245;-92
2023/05/24 06:48:30;;;;;;;46.73;9.50;;;17.30;54.20;;;;;;5073525;28;20822;-91
2023/05/24 06:50:58;;;;;;;47.70;8.43;;;17.30;54.30;;;;;;5074533;28;20242;-90
2023/05/24 06:53:26;;;;;;;34.27;7.67;;;17.30;54.30;;;;;;5084617;28;20241;-93
2023/05/24 06:55:53;;;;;;;49.23;8.50;;;17.30;54.20;;;;;;5073079;28;20205;-91
2023/05/24 06:58:20;;;;;;;48.67;8.73;;;17.30;54.20;;;;;;5071261;28;20284;-91
2023/05/24 07:00:49;;;;;;;60.23;9.67;;;17.30;54.20;;;;;;5069117;28;20708;-91
2023/05/24 07:03:16;;;;;;;30.97;6.57;;;17.40;54.30;;;;;;5085821;28;20215;-92
2023/05/24 07:05:43;;;;;;;46.50;8.27;;;17.40;54.30;;;;;;5081107;28;20221;-93
2023/05/24 07:08:11;;;;;;;39.80;7.77;;;17.40;54.30;;;;;;5077092;28;20275;-92
2023/05/24 07:10:38;;;;;;;48.37;7.97;;;17.40;54.30;;;;;;5069108;28;20306;-92
2023/05/24 07:13:05;;;;;;;45.73;8.17;;;17.40;54.20;;;;;;5070293;28;20237;-92
2023/05/24 07:15:32;;;;;;;38.93;7.43;;;17.40;54.20;;;;;;5072235;28;20260;-93
2023/05/24 07:17:59;;;;;;;47.57;8.20;;;17.40;54.20;;;;;;5069623;28;20293;-93
2023/05/24 07:20:27;;;;;;;47.17;8.60;;;17.40;54.20;;;;;;5069193;28;20230;-91
2023/05/24 07:22:54;;;;;;;45.57;7.97;;;17.50;54.20;;;;;;5073062;28;20198;-92
2023/05/24 07:25:23;;;;;;;49.53;8.20;;;17.50;54.30;;;;;;5079936;28;20304;-92
2023/05/24 07:27:50;;;;;;;42.60;7.57;;;17.50;54.20;;;;;;5087197;28;20236;-92
2023/05/24 07:30:17;;;;;;;92.77;12.07;;;17.50;54.20;;;;;;5081126;28;20447;-92
2023/05/24 07:32:44;;;;;;;45.07;7.73;;;17.50;54.20;;;;;;5068641;28;20287;-92
2023/05/24 07:35:12;;;;;;;36.17;7.13;;;17.50;54.20;;;;;;5076274;28;20250;-91
2023/05/24 07:37:40;;;;;;;34.10;6.37;;;17.60;54.30;;;;;;5077345;28;20214;-92
2023/05/24 07:40:10;;;;;;;38.60;7.17;;;17.50;54.20;;;;;;5088705;28;20190;-92
2023/05/24 07:42:38;;;;;;;51.33;8.50;;;17.60;54.30;;;;;;5082269;28;20652;-92
2023/05/24 07:45:07;;;;;;;41.57;7.53;;;17.60;54.30;;;;;;5073643;28;20242;-93
2023/05/24 07:47:34;;;;;;;42.70;7.40;;;17.60;54.30;;;;;;5069326;28;20223;-91
2023/05/24 07:50:02;;;;;;;38.33;7.13;;;17.70;54.40;;;;;;5069650;28;20245;-92
2023/05/24 07:52:30;;;;;;;39.03;7.33;;;17.70;54.40;;;;;;5077730;28;20216;-92
2023/05/24 07:54:57;;;;;;;43.17;7.23;;;17.70;54.40;;;;;;5084949;28;20201;-91
2023/05/24 07:57:24;;;;;;;41.07;6.97;;;17.70;54.40;;;;;;5087897;28;20210;-92
2023/05/24 07:59:52;;;;;;;45.80;7.23;;;17.70;54.40;;;;;;5076712;28;20214;-92
2023/05/24 08:02:19;;;;;;;58.80;8.93;;;17.80;54.40;;;;;;5067618;28;20264;-92
2023/05/24 08:04:47;;;;;;;30.43;6.67;;;17.80;54.40;;;;;;5066895;28;20273;-91
2023/05/24 08:07:14;;;;;;;45.57;7.50;;;17.80;54.40;;;;;;5068459;28;20237;-92
2023/05/24 08:09:42;;;;;;;37.33;7.83;;;17.80;54.40;;;;;;5067302;28;20579;-91
2023/05/24 08:12:09;;;;;;;41.57;7.47;;;17.80;54.40;;;;;;5085492;28;20217;-91
2023/05/24 08:14:36;;;;;;;60.07;8.77;;;17.90;54.50;;;;;;5085093;28;20705;-91
2023/05/24 08:17:05;;;;;;;39.40;7.20;;;17.90;54.50;;;;;;5072959;28;20711;-91
2023/05/24 08:19:34;;;;;;;37.77;7.33;;;17.90;54.60;;;;;;5079601;28;20294;-92
2023/05/24 08:22:04;;;;;;;39.70;7.03;;;17.90;54.60;;;;;;5068516;28;20234;-92
2023/05/24 08:24:31;;;;;;;55.53;8.90;;;18.00;54.60;;;;;;5068841;28;20638;-91
2023/05/24 08:26:58;;;;;;;46.57;7.73;;;18.00;54.60;;;;;;5068308;28;20314;-92
2023/05/24 08:29:25;;;;;;;52.57;8.23;;;18.00;54.60;;;;;;5068076;28;20204;-92
2023/05/24 08:31:52;;;;;;;38.77;7.33;;;18.10;54.70;;;;;;5067929;28;20269;-92
2023/05/24 08:34:20;;;;;;;59.90;9.17;;;18.10;54.70;;;;;;5074934;28;20229;-91
2023/05/24 08:36:48;;;;;;;53.67;8.27;;;18.10;54.70;;;;;;5069871;28;20215;-91
2023/05/24 08:39:15;;;;;;;42.60;7.63;;;18.10;54.70;;;;;;5075965;28;20670;-90
2023/05/24 08:41:43;;;;;;;47.70;7.83;;;18.10;54.70;;;;;;5086754;28;20262;-91
2023/05/24 08:44:10;;;;;;;37.80;6.93;;;18.20;54.80;;;;;;5108942;28;20207;-91
2023/05/24 08:46:38;;;;;;;41.50;7.43;;;18.20;54.80;;;;;;5081261;28;20218;-90
2023/05/24 08:49:06;;;;;;;30.73;7.23;;;18.20;54.80;;;;;;5072880;28;20207;-91
2023/05/24 08:51:37;;;;;;;41.93;6.87;;;18.30;54.80;;;;;;5072881;28;20321;-90
2023/05/24 08:54:06;;;;;;;38.57;6.83;;;18.30;54.80;;;;;;5071503;28;20959;-92
2023/05/24 08:56:34;;;;;;;71.43;9.93;;;18.40;54.90;;;;;;5075307;28;20203;-88
2023/05/24 08:59:02;;;;;;;70.73;10.10;;;18.30;54.80;;;;;;5086915;28;20723;-89
2023/05/24 09:01:31;;;;;;;60.07;9.47;;;18.40;54.90;;;;;;5071374;28;20282;-89
2023/05/24 09:04:00;;;;;;;67.77;10.27;;;18.40;54.80;;;;;;5082550;28;20207;-88
2023/05/24 09:06:27;;;;;;;86.50;11.20;;;18.50;54.90;;;;;;5079587;28;20680;-90
2023/05/24 09:09:05;;;;;;;72.07;10.43;;;18.50;54.90;;;;;;5082989;28;20196;-93
2023/05/24 09:11:32;;;;;;;51.73;8.47;;;18.50;54.80;;;;;;5085180;28;20299;-89
2023/05/24 09:14:01;;;;;;;38.97;7.33;;;18.60;55.00;;;;;;5072552;28;20528;-90
2023/05/24 09:16:29;;;;;;;49.27;8.37;;;18.60;55.00;;;;;;5082251;28;20198;-90
2023/05/24 09:18:56;;;;;;;36.27;7.50;;;18.70;55.20;;;;;;5074417;28;20229;-90
2023/05/24 09:21:23;;;;;;;51.07;8.23;;;18.80;55.30;;;;;;5083463;28;20203;-90
2023/05/24 09:23:51;;;;;;;51.37;8.60;;;18.80;55.20;;;;;;5072057;28;20715;-91
2023/05/24 09:26:20;;;;;;;50.47;8.00;;;18.90;55.30;;;;;;5080479;28;20207;-90
2023/05/24 09:28:49;;;;;;;36.00;7.10;;;18.90;55.30;;;;;;5090812;28;20345;-90
2023/05/24 09:31:17;;;;;;;38.70;7.07;;;19.00;55.30;;;;;;5089026;28;20222;-91
2023/05/24 09:33:48;;;;;;;37.57;6.97;;;19.00;55.20;;;;;;5075833;28;20620;-88
2023/05/24 09:36:17;;;;;;;62.80;8.77;;;19.10;55.20;;;;;;5069303;28;20295;-91
2023/05/24 09:38:44;;;;;;;38.67;7.17;;;19.10;55.10;;;;;;5069832;28;20289;-91
2023/05/24 09:41:11;;;;;;;32.40;6.37;;;19.20;55.10;;;;;;5083825;28;20227;-93
2023/05/24 09:43:49;;;;;;;34.60;6.83;;;19.20;55.00;;;;;;5086113;28;20246;-89
2023/05/24 09:46:17;;;;;;;28.37;5.97;;;19.30;55.10;;;;;;5081826;28;20278;-90
2023/05/24 09:48:56;;;;;;;33.27;6.33;;;19.30;55.10;;;;;;5071163;28;20655;-90
2023/05/24 09:51:23;;;;;;;38.63;7.07;;;19.30;55.10;;;;;;5074441;28;20577;-89
2023/05/24 09:53:51;;;;;;;50.90;7.60;;;19.40;55.20;;;;;;5084129;28;20203;-89
2023/05/24 09:56:18;;;;;;;26.70;6.13;;;19.40;55.20;;;;;;5090319;28;20299;-90
2023/05/24 09:58:46;;;;;;;36.23;6.70;;;19.50;55.20;;;;;;5090330;28;20214;-90
2023/05/24 10:01:17;;;;;;;52.43;8.03;;;19.50;55.20;;;;;;5084276;28;20695;-90
2023/05/24 10:03:53;;;;;;;40.77;7.30;;;19.50;55.20;;;;;;5084975;28;20277;-90
2023/05/24 10:06:21;;;;;;;43.53;6.90;;;19.60;55.30;;;;;;5069383;28;20203;-90
2023/05/24 10:08:57;;;;;;;33.57;5.90;;;19.60;55.30;;;;;;5073944;28;20237;-93
2023/05/24 10:11:26;;;;;;;29.73;5.93;;;19.60;54.90;;;;;;5072662;28;20242;-92
2023/05/24 10:13:54;;;;;;;23.07;5.80;;;19.70;54.30;;;;;;5073204;28;20200;-92
2023/05/24 10:16:23;;;;;;;43.00;7.07;;;19.70;53.80;;;;;;5074496;28;20196;-92
2023/05/24 10:18:50;;;;;;;30.27;6.23;;;19.70;53.70;;;;;;5072994;28;20207;-92
2023/05/24 10:21:24;;;;;;;15.20;5.33;;;19.70;53.30;;;;;;5089990;28;20591;-94
2023/05/24 10:23:59;;;;;;;24.37;5.80;;;19.70;52.60;;;;;;5103492;28;20198;-95
2023/05/24 10:26:32;;;;;;;30.33;6.13;;;19.80;53.10;;;;;;5108520;28;20255;-96
2023/05/24 10:29:11;;;;;;;17.60;5.07;;;19.80;52.90;;;;;;5101753;28;20211;-93
2023/05/24 10:31:41;;;;;;;35.57;6.40;;;19.90;52.10;;;;;;5101942;28;20265;-93
2023/05/24 10:34:09;;;;;;;24.97;5.33;;;20.00;52.60;;;;;;5085843;28;20224;-96
2023/05/24 10:36:42;;;;;;;39.47;6.57;;;20.00;52.60;;;;;;5074747;28;20518;-96
2023/05/24 10:39:11;;;;;;;34.73;6.43;;;20.10;52.00;;;;;;5078957;28;20221;-96
2023/05/24 10:41:43;;;;;;;26.93;5.47;;;20.10;52.10;;;;;;5073421;28;20260;-95
2023/05/24 10:44:12;;;;;;;31.10;6.10;;;20.20;52.10;;;;;;5092258;28;20248;-96
2023/05/24 10:47:18;;;;;;;19.47;4.97;;;20.30;52.20;;;;;;5094065;28;20292;-96
2023/05/24 10:49:52;;;;;;;40.93;6.53;;;20.30;52.40;;;;;;5065756;28;20199;-96
2023/05/24 10:52:19;;;;;;;31.83;6.13;;;20.50;53.10;;;;;;5094457;28;20289;-96
2023/05/24 10:55:06;;;;;;;20.43;4.77;;;20.50;53.10;;;;;;5103684;28;20300;-96
2023/05/24 10:57:33;;;;;;;22.27;5.10;;;20.60;52.60;;;;;;5104905;28;20198;-93
2023/05/24 11:00:28;;;;;;;30.70;5.97;;;20.70;53.10;;;;;;5091281;28;20207;-93
2023/05/24 11:03:09;;;;;;;31.30;6.43;;;20.80;52.10;;;;;;5078044;28;20630;-91
2023/05/24 11:05:52;;;;;;;53.67;7.87;;;20.90;52.70;;;;;;5083457;28;20202;-93
2023/05/24 11:08:24;;;;;;;26.07;5.63;;;21.00;53.00;;;;;;5089810;28;20260;-92
2023/05/24 11:11:04;;;;;;;24.70;5.50;;;21.10;53.00;;;;;;5072606;28;20226;-93
2023/05/24 11:13:32;;;;;;;38.67;6.73;;;21.20;52.50;;;;;;5083327;28;20218;-96
2023/05/24 11:16:00;;;;;;;32.57;6.13;;;21.30;53.00;;;;;;5081578;28;20234;-94
2023/05/24 11:18:29;;;;;;;31.23;6.07;;;21.40;52.90;;;;;;5107228;28;20206;-92
2023/05/24 11:21:02;;;;;;;23.63;5.53;;;21.50;52.40;;;;;;5099357;28;20213;-90
2023/05/24 11:23:36;;;;;;;26.83;5.67;;;21.60;52.30;;;;;;5099352;28;20202;-91
2023/05/24 11:26:03;;;;;;;22.40;5.47;;;21.60;52.10;;;;;;5092961;28;20280;-91
2023/05/24 11:28:43;;;;;;;22.53;5.37;;;21.80;52.50;;;;;;5094546;28;20245;-92
2023/05/24 11:31:15;;;;;;;26.43;5.47;;;21.90;52.60;;;;;;5090896;28;20206;-91
2023/05/24 11:33:42;;;;;;;29.97;6.50;;;22.00;52.60;;;;;;5095771;28;20316;-90
2023/05/24 11:36:12;;;;;;;27.57;5.90;;;22.10;52.20;;;;;;5079632;28;20642;-87
2023/05/24 11:38:40;;;;;;;41.53;7.60;;;22.10;51.50;;;;;;5085751;28;20289;-89
2023/05/24 11:41:07;;;;;;;33.47;6.27;;;22.20;51.70;;;;;;5088130;28;20261;-90
2023/05/24 11:43:35;;;;;;;103.00;12.17;;;22.30;51.40;;;;;;5083626;28;20296;-90
2023/05/24 11:46:05;;;;;;;24.30;5.73;;;22.40;52.00;;;;;;5081681;28;20199;-92
2023/05/24 11:48:32;;;;;;;35.97;6.33;;;22.50;52.40;;;;;;5069674;28;20231;-90
2023/05/24 11:51:00;;;;;;;26.57;6.20;;;22.50;52.30;;;;;;5069771;28;20211;-91
2023/05/24 11:53:28;;;;;;;37.27;6.93;;;22.60;51.90;;;;;;5083864;28;20753;-89
2023/05/24 11:55:55;;;;;;;20.90;5.40;;;22.70;51.60;;;;;;5070731;28;20234;-91
2023/05/24 11:58:25;;;;;;;40.07;6.90;;;22.80;52.40;;;;;;5090148;28;20223;-91
2023/05/24 12:00:52;;;;;;;27.53;6.37;;;22.90;52.00;;;;;;5077259;28;20282;-88
2023/05/24 12:03:19;;;;;;;38.30;6.77;;;23.00;52.20;;;;;;5068567;28;20204;-87
2023/05/24 12:05:46;;;;;;;25.23;5.77;;;23.10;52.20;;;;;;5085232;28;20254;-87
2023/05/24 12:08:14;;;;;;;30.80;5.97;;;23.20;51.70;;;;;;5085079;28;20254;-86
2023/05/24 12:10:43;;;;;;;44.47;7.53;;;23.30;51.30;;;;;;5070039;28;20225;-86
2023/05/24 12:13:21;;;;;;;28.57;6.53;;;23.30;51.00;;;;;;5082997;28;20689;-86
2023/05/24 12:15:53;;;;;;;52.47;8.10;;;23.50;51.00;;;;;;5078502;28;20285;-88
2023/05/24 12:18:24;;;;;;;20.63;5.17;;;23.50;51.00;;;;;;5080689;28;20284;-89
2023/05/24 12:20:52;;;;;;;22.70;5.43;;;23.60;51.60;;;;;;5077104;28;20279;-89
2023/05/24 12:23:21;;;;;;;42.53;7.13;;;23.70;51.80;;;;;;5090023;28;20312;-88
2023/05/24 12:25:50;;;;;;;31.83;5.90;;;23.80;52.00;;;;;;5090930;28;20201;-89
2023/05/24 12:28:21;;;;;;;67.53;8.93;;;23.90;52.10;;;;;;5086402;28;20605;-88
2023/05/24 12:30:54;;;;;;;41.80;6.97;;;23.90;52.10;;;;;;5071474;28;20196;-90
2023/05/24 12:33:21;;;;;;;37.07;7.00;;;24.00;52.10;;;;;;5069934;28;20285;-89
2023/05/24 12:35:49;;;;;;;28.80;5.47;;;24.10;52.20;;;;;;5074024;28;20612;-88
2023/05/24 12:38:24;;;;;;;51.63;7.67;;;24.10;52.00;;;;;;5070474;28;20512;-88
2023/05/24 12:41:00;;;;;;;35.13;6.60;;;24.20;51.90;;;;;;5075956;28;20207;-88
2023/05/24 12:43:27;;;;;;;39.47;6.93;;;24.30;51.60;;;;;;5088621;28;20213;-90
2023/05/24 12:45:54;;;;;;;40.43;6.93;;;24.30;51.50;;;;;;5095998;28;20249;-89
2023/05/24 12:48:22;;;;;;;44.83;7.27;;;24.40;51.90;;;;;;5073791;28;20230;-88